Wye Mills, MD

6:53 AM EST on December 29, 2014 (GMT -0500)
Cambridge-Dorchester | Change Station
CLOSE
Current Station
Airport
Location: Cambridge,
Elevation: 20 ft
Nearby Weather Stations

Elev 20 ft 38.54 °N, 76.03 °W | Updated 13 minutes ago

Rain
Rain
43 °F
Feels Like 38 °F
N
9
Wind Variable Wind from North

Today
High -- | Low -- °F
--% Chance of Precip.
Yesterday
High -- | Low -- °F
Precip. -- in
7:21 AM 4:49 PM
First Quarter, 58% visible
Pressure 30.17 in
Visibility 10.0 miles
Clouds Overcast 3700 ft
Windchill 38 °F
Dew Point 36 °F
Humidity 76%
Rainfall 0.00 in
Snow Depth Not available.
UV 0 out of 12
Pollen .10 out of 12
Air Quality Not available.
Flu Activity Not available.
METAR KCGE 291140Z AUTO 35008KT 10SM OVC037 06/02 A3017 RMK AO1

More Conditions Fewer Conditions

Pressure 30.17 in
Visibility 10.0 miles
Clouds Overcast 3700 ft
Windchill 38 °F
Dew Point 36 °F
Humidity 76%
Rainfall 0.00 in
Snow Depth Not available.
UV 0 out of 12
Pollen .10 out of 12
Air Quality Not available.
Flu Activity Not available.
METAR KCGE 291140Z AUTO 35008KT 10SM OVC037 06/02 A3017 RMK AO1

More Conditions Fewer Conditions

10-Day Weather Forecast

Almanac

Astronomy

Dec. 29, 2014 Rise Set
Actual Time
Civil Twilight
Nautical Twilight
Astronomical Twilight
Moon
Length of Visible Light
Length of Day
Tomorrow will be .
, % of the Moon is Illuminated

Today's Extremes

State Highs State Lows

Community

WunderPhotos

Upload Photos

1,781,571 photos uploaded!

WunderBlogs® & News

Nearby

Air Quality

  Air Quality AQ Index Pollutant
Not available.

Snow Depth

Station Depth Elevation

Earthquake Activity

City Distance Mag. Time & Date
Minimum magnitude displayed is 2.5.

Coastal Water Temperatures

Place Temperature

Nearby Weather Stations